Time;durP1;ratioP1;P1;durP2;ratioP2;P2;SDS_P1;SDS_P2;PMS_P1;PMS_P2;Temp;Humidity;BMP_temperature;BMP_pressure;BME280_temperature;BME280_humidity;BME280_pressure;Samples;Min_cycle;Max_cycle;Signal;HPM_P1;HPM_P2
2022/08/23 00:01:12;;;;;;;5.93;5.10;;;25.60;55.00;;;;;;5035129;28;20452;-72
2022/08/23 00:03:38;;;;;;;5.83;5.30;;;25.60;55.00;;;;;;5035543;28;20429;-72
2022/08/23 00:06:04;;;;;;;6.70;5.60;;;25.50;55.20;;;;;;5035053;28;20453;-71
2022/08/23 00:08:30;;;;;;;6.47;5.80;;;25.50;55.20;;;;;;5032749;28;20486;-72
2022/08/23 00:10:57;;;;;;;9.10;6.00;;;25.50;55.20;;;;;;5030905;28;20442;-73
2022/08/23 00:13:23;;;;;;;16.43;7.47;;;25.50;55.20;;;;;;5030958;28;20473;-73
2022/08/23 00:15:49;;;;;;;7.20;5.80;;;25.50;55.20;;;;;;5035085;28;20456;-72
2022/08/23 00:18:15;;;;;;;6.40;4.93;;;25.50;55.30;;;;;;5031181;28;20438;-73
2022/08/23 00:20:41;;;;;;;5.57;5.07;;;25.40;55.20;;;;;;5031870;28;20814;-72
2022/08/23 00:23:07;;;;;;;5.90;5.10;;;25.30;55.30;;;;;;5034780;28;20184;-72
2022/08/23 00:25:32;;;;;;;8.40;4.80;;;25.30;55.50;;;;;;5031189;28;20458;-72
2022/08/23 00:27:58;;;;;;;6.33;4.63;;;25.30;55.40;;;;;;5031209;28;20671;-72
2022/08/23 00:30:24;;;;;;;5.13;4.47;;;25.30;55.80;;;;;;5030883;28;20655;-72
2022/08/23 00:32:50;;;;;;;5.23;4.50;;;25.30;55.70;;;;;;5032262;28;20211;-72
2022/08/23 00:35:16;;;;;;;6.00;4.20;;;25.30;55.70;;;;;;5030514;28;21340;-74
2022/08/23 00:37:42;;;;;;;6.70;5.20;;;25.30;55.90;;;;;;5031069;28;20434;-74
2022/08/23 00:40:12;;;;;;;5.03;4.63;;;25.20;55.90;;;;;;5034235;28;20179;-73
2022/08/23 00:48:38;;;;;;;5.30;4.90;;;25.10;56.20;;;;;;5032595;28;20445;-76
2022/08/23 00:51:20;;;;;;;5.70;5.20;;;25.10;56.30;;;;;;5026814;28;20434;-72
2022/08/23 00:53:51;;;;;;;5.30;4.80;;;25.10;56.40;;;;;;5033794;28;20427;-74
2022/08/23 00:56:19;;;;;;;5.47;4.97;;;25.10;56.50;;;;;;5034257;28;22213;-74
2022/08/23 00:58:45;;;;;;;5.53;5.03;;;25.00;56.60;;;;;;5031491;28;20434;-73
2022/08/23 01:01:12;;;;;;;5.27;4.70;;;25.00;56.70;;;;;;5033797;28;20491;-73
2022/08/23 01:03:41;;;;;;;5.60;5.10;;;24.90;56.60;;;;;;5037525;28;20431;-75
2022/08/23 01:06:13;;;;;;;5.40;4.80;;;24.90;56.70;;;;;;5034296;28;20502;-73
2022/08/23 01:08:44;;;;;;;5.60;5.10;;;24.90;56.90;;;;;;5033165;28;20455;-73
2022/08/23 01:11:15;;;;;;;5.37;4.87;;;24.80;57.10;;;;;;5036008;28;20434;-74
2022/08/23 01:14:10;;;;;;;5.70;5.10;;;24.80;57.30;;;;;;5034831;28;20528;-74
2022/08/23 01:16:46;;;;;;;5.73;5.23;;;24.70;57.50;;;;;;5032815;28;21003;-75
2022/08/23 01:19:35;;;;;;;5.90;5.30;;;24.70;57.40;;;;;;5035157;28;20581;-74
2022/08/23 01:22:19;;;;;;;5.17;4.77;;;24.70;57.50;;;;;;5034726;28;20441;-75
2022/08/23 01:24:47;;;;;;;5.23;4.80;;;24.60;57.60;;;;;;5032337;28;20451;-72
2022/08/23 01:27:13;;;;;;;8.30;6.17;;;24.50;58.00;;;;;;5030954;28;20503;-72
2022/08/23 01:29:40;;;;;;;7.30;5.90;;;24.40;58.00;;;;;;5033086;28;20454;-72
2022/08/23 01:32:07;;;;;;;4.90;4.50;;;24.40;58.50;;;;;;5028067;28;20482;-72
2022/08/23 01:34:33;;;;;;;5.77;4.87;;;24.40;58.40;;;;;;5027487;28;20530;-72
2022/08/23 01:37:00;;;;;;;5.67;5.17;;;24.30;58.60;;;;;;5033209;28;20521;-72
2022/08/23 01:39:26;;;;;;;5.70;5.20;;;24.30;58.80;;;;;;5033044;28;20889;-72
2022/08/23 01:41:51;;;;;;;6.17;5.57;;;24.30;59.00;;;;;;5038106;28;20546;-73
2022/08/23 01:44:17;;;;;;;7.03;5.17;;;24.30;59.10;;;;;;5028032;28;20208;-73
2022/08/23 01:46:44;;;;;;;6.37;5.77;;;24.30;59.00;;;;;;5029355;28;20204;-75
2022/08/23 01:49:11;;;;;;;6.87;6.17;;;24.30;59.10;;;;;;5026645;28;20793;-73
2022/08/23 01:51:37;;;;;;;5.97;5.37;;;24.30;59.20;;;;;;5028739;28;20986;-73
2022/08/23 01:54:04;;;;;;;8.77;5.33;;;24.30;59.40;;;;;;5034393;28;20440;-73
2022/08/23 01:56:31;;;;;;;6.13;5.53;;;24.20;59.30;;;;;;5026464;28;21323;-73
2022/08/23 01:58:57;;;;;;;6.80;6.10;;;24.20;59.50;;;;;;5029577;28;20449;-73
2022/08/23 02:01:23;;;;;;;6.33;4.87;;;24.20;59.50;;;;;;5030628;28;20449;-74
2022/08/23 02:03:49;;;;;;;5.80;5.10;;;24.20;59.50;;;;;;5035549;28;20442;-73
2022/08/23 02:06:14;;;;;;;5.70;5.20;;;24.20;59.50;;;;;;5028572;28;20246;-76
2022/08/23 02:11:26;;;;;;;6.17;5.57;;;24.10;59.60;;;;;;5030311;28;20231;-75
2022/08/23 02:13:54;;;;;;;5.97;5.47;;;24.10;59.70;;;;;;5030874;28;20434;-76
2022/08/23 02:16:36;;;;;;;6.77;5.47;;;24.00;60.30;;;;;;5032241;28;20501;-76
2022/08/23 02:19:07;;;;;;;6.37;5.77;;;24.00;60.10;;;;;;5026440;28;20449;-76
2022/08/23 02:21:33;;;;;;;5.90;5.30;;;23.90;60.00;;;;;;5028561;28;20439;-73
2022/08/23 02:24:30;;;;;;;6.17;5.57;;;23.90;60.50;;;;;;5029725;28;20442;-76
2022/08/23 02:26:59;;;;;;;6.47;5.30;;;23.90;60.60;;;;;;5027856;28;20444;-74
2022/08/23 02:29:28;;;;;;;6.00;5.50;;;23.90;60.50;;;;;;5031908;28;20451;-75
2022/08/23 02:31:54;;;;;;;6.17;5.23;;;23.90;60.50;;;;;;5024189;28;20966;-74
2022/08/23 02:34:20;;;;;;;5.50;5.00;;;23.90;60.60;;;;;;5033012;28;20821;-74
2022/08/23 02:36:46;;;;;;;6.73;5.20;;;23.90;60.70;;;;;;5029122;28;20447;-74
2022/08/23 02:39:14;;;;;;;6.57;5.40;;;23.90;61.10;;;;;;5031145;28;20184;-75
2022/08/23 02:41:40;;;;;;;10.50;5.30;;;23.80;61.10;;;;;;5031921;28;20450;-75
2022/08/23 02:44:06;;;;;;;7.43;5.10;;;23.80;61.30;;;;;;5029058;28;20448;-74
2022/08/23 02:46:32;;;;;;;5.60;5.10;;;23.80;61.70;;;;;;5033524;28;20697;-75
2022/08/23 02:48:58;;;;;;;6.30;5.10;;;23.80;61.70;;;;;;5032230;28;20499;-75
2022/08/23 02:51:24;;;;;;;6.40;5.53;;;23.80;61.80;;;;;;5030821;28;20455;-74
2022/08/23 02:53:50;;;;;;;5.80;5.30;;;23.80;61.80;;;;;;5029826;28;20296;-74
2022/08/23 02:56:16;;;;;;;5.50;5.07;;;23.70;61.70;;;;;;5030793;28;20287;-74
2022/08/23 02:58:44;;;;;;;5.23;4.63;;;23.60;62.00;;;;;;5030333;28;20453;-72
2022/08/23 03:01:24;;;;;;;6.43;5.83;;;23.60;62.10;;;;;;5034279;28;20481;-74
2022/08/23 03:03:51;;;;;;;8.30;5.33;;;23.60;62.30;;;;;;5028546;28;20530;-73
2022/08/23 03:06:17;;;;;;;5.77;5.17;;;23.70;62.40;;;;;;5034330;28;20458;-72
2022/08/23 03:08:44;;;;;;;5.20;4.73;;;23.60;62.30;;;;;;5036742;28;20445;-72
2022/08/23 03:11:12;;;;;;;8.50;4.93;;;23.60;62.40;;;;;;5034523;28;20445;-73
2022/08/23 03:13:38;;;;;;;6.53;5.93;;;23.60;62.40;;;;;;5034548;28;20467;-74
2022/08/23 03:16:04;;;;;;;6.27;5.40;;;23.60;62.70;;;;;;5039479;28;20465;-74
2022/08/23 03:18:30;;;;;;;5.20;4.70;;;23.50;62.70;;;;;;5031803;28;20455;-73
2022/08/23 03:20:56;;;;;;;5.87;5.27;;;23.50;63.80;;;;;;5032959;28;20463;-74
2022/08/23 03:23:21;;;;;;;6.37;5.70;;;23.50;63.00;;;;;;5036309;28;20195;-74
2022/08/23 03:25:47;;;;;;;6.10;5.50;;;23.40;63.20;;;;;;5038651;28;20208;-72
2022/08/23 03:28:13;;;;;;;6.63;5.40;;;23.40;64.20;;;;;;5033530;28;20194;-72
2022/08/23 03:30:38;;;;;;;5.97;5.10;;;23.40;63.40;;;;;;5034131;28;20191;-74
2022/08/23 03:33:04;;;;;;;6.60;5.70;;;23.30;63.40;;;;;;5031916;28;20284;-74
2022/08/23 03:35:30;;;;;;;6.33;5.00;;;23.30;63.80;;;;;;5030755;28;20219;-73
2022/08/23 03:37:56;;;;;;;6.70;5.47;;;23.30;63.80;;;;;;5035212;28;20426;-73
2022/08/23 03:40:22;;;;;;;6.10;5.50;;;23.30;63.90;;;;;;5040789;28;20193;-72
2022/08/23 03:42:49;;;;;;;6.17;5.57;;;23.20;64.50;;;;;;5035836;28;20217;-73
2022/08/23 03:45:16;;;;;;;5.20;4.70;;;23.20;64.60;;;;;;5039033;28;20519;-73
2022/08/23 03:47:42;;;;;;;5.40;4.70;;;23.20;64.80;;;;;;5034343;28;20430;-72
2022/08/23 03:50:08;;;;;;;6.10;5.50;;;23.10;64.90;;;;;;5033097;28;20802;-76
2022/08/23 03:52:34;;;;;;;7.30;5.33;;;23.10;65.10;;;;;;5032300;28;20482;-75
2022/08/23 03:54:59;;;;;;;5.60;5.10;;;23.10;65.40;;;;;;5032282;28;20858;-75
2022/08/23 03:57:25;;;;;;;6.60;5.80;;;23.10;65.70;;;;;;5035832;28;20192;-70
2022/08/23 03:59:50;;;;;;;7.10;5.33;;;23.10;65.80;;;;;;5035795;28;20192;-72
2022/08/23 04:02:17;;;;;;;6.70;5.90;;;23.10;66.10;;;;;;5039284;28;20271;-71
2022/08/23 04:04:42;;;;;;;5.60;5.10;;;22.90;66.20;;;;;;5033058;28;20278;-73
2022/08/23 04:07:09;;;;;;;7.53;6.73;;;23.00;66.40;;;;;;5031054;28;21024;-72
2022/08/23 04:09:35;;;;;;;5.50;5.00;;;23.00;66.40;;;;;;5038405;28;20195;-72
2022/08/23 04:12:01;;;;;;;5.97;5.47;;;23.00;66.60;;;;;;5038214;28;20546;-71
2022/08/23 04:14:26;;;;;;;7.47;5.73;;;23.00;66.70;;;;;;5037846;28;20192;-72
2022/08/23 04:16:52;;;;;;;6.07;5.40;;;22.90;66.60;;;;;;5039166;28;20187;-71
2022/08/23 04:19:18;;;;;;;5.77;5.13;;;22.90;67.00;;;;;;5039655;28;20188;-72
2022/08/23 04:21:49;;;;;;;7.10;5.47;;;22.90;67.60;;;;;;5035303;28;20671;-71
2022/08/23 04:24:16;;;;;;;6.80;6.20;;;22.90;67.70;;;;;;5034873;28;20916;-72
2022/08/23 04:26:42;;;;;;;5.97;5.37;;;22.90;67.80;;;;;;5036074;28;20462;-71
2022/08/23 04:29:08;;;;;;;6.50;5.90;;;22.90;67.90;;;;;;5035647;28;20448;-73
2022/08/23 04:31:34;;;;;;;6.70;5.70;;;22.90;67.70;;;;;;5039552;28;20453;-72
2022/08/23 04:34:00;;;;;;;7.00;5.90;;;22.90;67.90;;;;;;5038082;28;20414;-71
2022/08/23 04:36:36;;;;;;;7.07;6.37;;;22.80;67.70;;;;;;5035767;28;20458;-72
2022/08/23 04:39:03;;;;;;;6.93;6.23;;;22.80;67.70;;;;;;5036196;28;20302;-72
2022/08/23 04:44:14;;;;;;;5.93;5.43;;;22.80;68.00;;;;;;5038025;28;20434;-72
2022/08/23 04:46:40;;;;;;;9.53;5.77;;;22.80;68.30;;;;;;5033032;28;20527;-73
2022/08/23 04:49:05;;;;;;;6.40;5.80;;;22.70;69.10;;;;;;5035915;28;21080;-72
2022/08/23 04:51:31;;;;;;;7.33;5.97;;;22.70;68.40;;;;;;5037151;28;20234;-73
2022/08/23 04:53:57;;;;;;;6.50;5.90;;;22.70;68.50;;;;;;5035145;28;20182;-74
2022/08/23 04:56:22;;;;;;;6.23;5.63;;;22.70;68.50;;;;;;5033150;28;20711;-74
2022/08/23 04:58:48;;;;;;;7.20;5.90;;;22.70;68.60;;;;;;5034739;28;20187;-73
2022/08/23 05:01:17;;;;;;;5.67;5.17;;;22.70;68.50;;;;;;5036343;28;20194;-73
2022/08/23 05:03:43;;;;;;;6.53;5.30;;;22.70;68.50;;;;;;5037142;28;20187;-73
2022/08/23 05:06:08;;;;;;;6.37;5.63;;;22.70;68.60;;;;;;5032072;28;20872;-72
2022/08/23 05:08:34;;;;;;;6.37;5.77;;;22.70;68.50;;;;;;5034152;28;20229;-72
2022/08/23 05:11:02;;;;;;;8.13;6.17;;;22.60;68.40;;;;;;5030505;28;20187;-72
2022/08/23 05:13:29;;;;;;;8.70;5.93;;;22.60;68.90;;;;;;5030806;28;20462;-72
2022/08/23 05:15:55;;;;;;;6.07;5.47;;;22.60;69.20;;;;;;5030216;28;20453;-71
2022/08/23 05:18:20;;;;;;;6.00;5.40;;;22.60;69.10;;;;;;5032851;28;20428;-72
2022/08/23 05:20:46;;;;;;;7.13;5.50;;;22.60;69.10;;;;;;5031452;28;20454;-72
2022/08/23 05:23:11;;;;;;;6.13;5.40;;;22.70;69.60;;;;;;5032773;28;20580;-71
2022/08/23 05:25:49;;;;;;;5.90;5.43;;;22.70;69.60;;;;;;5033457;28;21004;-72
2022/08/23 05:28:17;;;;;;;9.70;5.90;;;22.70;69.60;;;;;;5033002;28;20195;-72
2022/08/23 05:30:44;;;;;;;7.03;5.83;;;22.70;69.50;;;;;;5045711;28;21238;-72
2022/08/23 05:33:11;;;;;;;6.93;6.23;;;22.70;69.60;;;;;;5032110;28;20458;-72
2022/08/23 05:35:37;;;;;;;6.43;5.73;;;22.70;69.70;;;;;;5031279;28;20525;-74
2022/08/23 05:38:03;;;;;;;9.83;5.60;;;22.70;70.10;;;;;;5033581;28;20443;-73
2022/08/23 05:40:29;;;;;;;7.10;6.50;;;22.70;70.10;;;;;;5032507;28;20430;-72
2022/08/23 05:42:54;;;;;;;6.67;5.97;;;22.70;70.40;;;;;;5035376;28;20685;-72
2022/08/23 05:45:20;;;;;;;9.30;6.50;;;22.70;70.70;;;;;;5031993;28;20204;-72
2022/08/23 05:47:46;;;;;;;10.13;5.70;;;22.70;70.70;;;;;;5032137;28;20187;-72
2022/08/23 05:50:12;;;;;;;7.40;6.37;;;22.60;70.90;;;;;;5033804;28;21126;-70
2022/08/23 05:52:38;;;;;;;8.30;5.87;;;22.60;71.00;;;;;;5033398;28;20203;-71
2022/08/23 05:55:05;;;;;;;9.43;6.70;;;22.50;71.40;;;;;;5030703;28;20461;-71
2022/08/23 05:57:34;;;;;;;9.70;6.60;;;22.50;71.80;;;;;;5032424;28;20177;-71
2022/08/23 05:59:59;;;;;;;9.93;6.57;;;22.50;71.80;;;;;;5034994;28;20802;-72
2022/08/23 06:02:25;;;;;;;6.90;6.13;;;22.40;71.90;;;;;;5029157;28;20439;-71
2022/08/23 06:04:51;;;;;;;9.87;7.43;;;22.50;72.20;;;;;;5032571;28;20721;-72
2022/08/23 06:07:16;;;;;;;8.63;7.40;;;22.50;72.30;;;;;;5032061;28;20561;-72
2022/08/23 06:09:42;;;;;;;10.13;6.53;;;22.50;72.20;;;;;;5036285;28;20185;-71
2022/08/23 06:12:07;;;;;;;6.50;5.80;;;22.50;72.30;;;;;;5031913;28;20220;-73
2022/08/23 06:14:33;;;;;;;7.80;7.10;;;22.60;72.40;;;;;;5029041;28;20184;-72
2022/08/23 06:16:59;;;;;;;7.30;6.50;;;22.60;72.50;;;;;;5023346;28;20188;-73
2022/08/23 06:19:24;;;;;;;7.47;6.63;;;22.60;72.50;;;;;;5025660;28;20180;-73
2022/08/23 06:21:51;;;;;;;6.53;5.93;;;22.60;72.60;;;;;;5032713;28;20291;-74
2022/08/23 06:24:18;;;;;;;12.60;6.97;;;22.60;72.60;;;;;;5034983;28;20176;-74
2022/08/23 06:26:44;;;;;;;7.30;6.60;;;22.70;72.40;;;;;;5033811;28;20449;-70
2022/08/23 06:29:13;;;;;;;7.90;7.10;;;22.80;72.40;;;;;;5032645;28;20945;-70
2022/08/23 06:31:45;;;;;;;9.07;6.43;;;22.80;72.30;;;;;;5033399;28;20468;-69
2022/08/23 06:34:24;;;;;;;8.03;6.30;;;22.80;72.10;;;;;;5035710;28;20426;-70
2022/08/23 06:36:56;;;;;;;7.30;6.40;;;22.80;72.00;;;;;;5033041;28;20413;-70
2022/08/23 06:39:24;;;;;;;7.63;5.57;;;22.90;72.30;;;;;;5033813;28;20428;-69
2022/08/23 06:41:50;;;;;;;8.67;5.20;;;22.90;71.60;;;;;;5034106;28;21429;-69
2022/08/23 06:44:18;;;;;;;5.73;4.93;;;22.90;71.50;;;;;;5033708;28;21124;-69
2022/08/23 06:46:45;;;;;;;6.60;5.60;;;22.90;71.70;;;;;;5032849;28;20546;-70
2022/08/23 06:49:11;;;;;;;6.07;5.40;;;22.90;71.40;;;;;;5035898;28;20442;-70
2022/08/23 06:51:44;;;;;;;8.13;6.80;;;23.00;71.60;;;;;;5034143;28;20426;-69
2022/08/23 06:54:13;;;;;;;6.70;5.13;;;23.10;71.50;;;;;;5035195;28;20517;-70
2022/08/23 06:56:41;;;;;;;9.47;5.40;;;23.10;71.30;;;;;;5030615;28;21093;-71
2022/08/23 06:59:07;;;;;;;6.10;5.17;;;23.20;71.20;;;;;;5033496;28;21006;-70
2022/08/23 07:01:42;;;;;;;6.70;5.87;;;23.30;70.90;;;;;;5037238;28;20480;-70
2022/08/23 07:04:09;;;;;;;7.00;5.30;;;23.30;71.00;;;;;;5038365;28;20423;-70
2022/08/23 07:06:35;;;;;;;5.30;4.80;;;23.30;71.20;;;;;;5027541;28;20450;-70
2022/08/23 07:09:02;;;;;;;8.77;5.20;;;23.20;71.80;;;;;;5036014;28;20438;-70
2022/08/23 07:11:30;;;;;;;6.07;5.47;;;23.20;72.10;;;;;;5034045;28;20521;-69
2022/08/23 07:13:59;;;;;;;7.10;4.70;;;23.40;72.10;;;;;;5037322;28;20422;-70
2022/08/23 07:16:30;;;;;;;8.90;5.53;;;23.40;71.90;;;;;;5033721;28;20464;-70
2022/08/23 07:18:56;;;;;;;7.30;5.23;;;23.50;71.80;;;;;;5032062;28;20429;-70
2022/08/23 07:21:21;;;;;;;6.63;5.30;;;23.50;72.10;;;;;;5029633;28;20759;-70
2022/08/23 07:23:47;;;;;;;6.20;5.60;;;23.50;72.10;;;;;;5032561;28;20184;-70
2022/08/23 07:26:14;;;;;;;8.17;5.20;;;23.40;72.30;;;;;;5032984;28;20294;-70
2022/08/23 07:28:41;;;;;;;6.60;5.17;;;23.60;72.50;;;;;;5031717;28;20189;-70
2022/08/23 07:31:14;;;;;;;8.40;4.67;;;23.60;72.50;;;;;;5034358;28;20434;-69
2022/08/23 07:33:41;;;;;;;6.60;6.00;;;23.70;72.30;;;;;;5030021;28;20467;-70
2022/08/23 07:36:08;;;;;;;8.13;4.73;;;23.70;72.50;;;;;;5033272;28;20457;-68
2022/08/23 07:38:34;;;;;;;10.73;4.83;;;23.80;72.40;;;;;;5032414;28;20434;-69
2022/08/23 07:41:02;;;;;;;5.10;4.60;;;23.90;72.10;;;;;;5034877;28;20453;-69
2022/08/23 07:43:28;;;;;;;7.40;5.40;;;23.80;72.10;;;;;;5034790;28;20724;-69
2022/08/23 07:45:54;;;;;;;6.27;4.13;;;23.70;72.50;;;;;;5029031;28;20458;-69
2022/08/23 07:48:20;;;;;;;5.47;4.63;;;23.80;72.30;;;;;;5035104;28;21186;-69
2022/08/23 07:50:56;;;;;;;5.10;4.40;;;23.90;72.10;;;;;;5036001;28;20243;-69
2022/08/23 07:53:24;;;;;;;5.53;4.90;;;24.00;72.20;;;;;;5031173;28;20310;-69
2022/08/23 07:55:51;;;;;;;5.90;4.83;;;24.00;72.20;;;;;;5036150;28;20446;-69
2022/08/23 07:58:16;;;;;;;6.47;4.73;;;24.10;72.20;;;;;;5031415;28;20455;-69
2022/08/23 08:00:42;;;;;;;5.37;4.87;;;24.10;72.20;;;;;;5041556;28;20426;-69
2022/08/23 08:03:10;;;;;;;5.40;4.37;;;24.00;72.60;;;;;;5036375;28;20286;-69
2022/08/23 08:05:35;;;;;;;7.47;5.07;;;24.20;72.50;;;;;;5035769;28;20441;-69
2022/08/23 08:08:02;;;;;;;7.80;4.90;;;24.20;72.60;;;;;;5035795;28;20469;-69
2022/08/23 08:10:28;;;;;;;10.63;5.03;;;24.30;72.50;;;;;;5040323;28;20209;-70
2022/08/23 08:12:54;;;;;;;5.03;4.53;;;24.30;72.70;;;;;;5041796;28;20474;-69
2022/08/23 08:15:21;;;;;;;6.00;4.53;;;24.50;72.30;;;;;;5039604;28;20205;-68
2022/08/23 08:17:47;;;;;;;6.07;4.70;;;24.60;72.00;;;;;;5038918;28;20442;-68
2022/08/23 08:20:14;;;;;;;6.77;4.40;;;24.60;71.70;;;;;;5037029;28;20807;-69
2022/08/23 08:22:40;;;;;;;5.83;4.47;;;24.70;71.60;;;;;;5033381;28;20465;-68
2022/08/23 08:25:07;;;;;;;5.20;4.43;;;24.70;71.10;;;;;;5036623;28;20467;-71
2022/08/23 08:27:33;;;;;;;5.73;4.50;;;24.70;70.90;;;;;;5039170;28;20451;-69
2022/08/23 08:29:59;;;;;;;5.27;4.77;;;24.80;71.00;;;;;;5041678;28;21333;-69
2022/08/23 08:32:25;;;;;;;5.90;4.10;;;24.70;70.90;;;;;;5041055;28;20208;-71
2022/08/23 08:34:50;;;;;;;5.30;4.70;;;24.80;71.10;;;;;;5036989;28;20625;-69
2022/08/23 08:37:16;;;;;;;6.30;4.60;;;24.90;70.90;;;;;;5031790;28;20196;-69
2022/08/23 08:39:44;;;;;;;6.97;4.60;;;24.90;70.90;;;;;;5034365;28;20677;-70
2022/08/23 08:42:36;;;;;;;5.20;4.50;;;24.90;71.40;;;;;;5042760;28;20180;-70
2022/08/23 08:45:21;;;;;;;5.13;4.73;;;25.00;71.10;;;;;;5040641;28;20457;-69
2022/08/23 08:47:55;;;;;;;5.57;4.70;;;25.10;70.60;;;;;;5035370;28;20431;-70
2022/08/23 08:50:27;;;;;;;4.90;4.30;;;25.00;70.40;;;;;;5039203;28;21189;-69
2022/08/23 08:53:08;;;;;;;6.53;4.80;;;25.10;70.90;;;;;;5036363;28;20509;-70
2022/08/23 08:55:51;;;;;;;4.50;4.10;;;25.20;70.30;;;;;;5035969;28;20454;-70
2022/08/23 08:58:29;;;;;;;5.97;4.90;;;25.30;69.60;;;;;;5035334;28;20812;-69
2022/08/23 09:00:55;;;;;;;4.70;3.80;;;25.30;69.40;;;;;;5034177;28;20434;-69
2022/08/23 09:03:21;;;;;;;4.87;4.37;;;25.30;69.80;;;;;;5035816;28;20488;-69
2022/08/23 09:06:00;;;;;;;9.67;4.57;;;25.40;69.40;;;;;;5037593;28;20550;-69
2022/08/23 09:08:57;;;;;;;4.40;4.00;;;25.40;69.20;;;;;;5032824;28;20442;-70
2022/08/23 09:11:44;;;;;;;7.33;5.03;;;25.40;69.00;;;;;;5038428;28;20474;-70
2022/08/23 09:14:37;;;;;;;10.90;7.20;;;25.40;69.10;;;;;;5036639;28;20470;-69
2022/08/23 09:17:09;;;;;;;5.00;3.70;;;25.50;69.10;;;;;;5037374;28;20434;-70
2022/08/23 09:19:37;;;;;;;6.70;4.40;;;25.50;69.20;;;;;;5041696;28;20866;-69
2022/08/23 09:22:17;;;;;;;4.70;3.97;;;25.50;68.50;;;;;;5035125;28;20433;-69
2022/08/23 09:24:43;;;;;;;5.10;4.20;;;25.60;67.90;;;;;;5037085;28;20427;-69
2022/08/23 09:27:09;;;;;;;4.53;4.13;;;25.70;67.90;;;;;;5036244;28;20433;-69
2022/08/23 09:29:38;;;;;;;11.00;4.80;;;25.90;67.40;;;;;;5037510;28;20184;-70
2022/08/23 09:32:16;;;;;;;5.00;4.50;;;26.00;66.60;;;;;;5037347;28;20462;-69
2022/08/23 09:34:42;;;;;;;7.13;4.00;;;26.10;66.60;;;;;;5038981;28;21106;-69
2022/08/23 09:37:18;;;;;;;6.90;3.90;;;26.20;66.40;;;;;;5033583;28;20426;-69
2022/08/23 09:39:53;;;;;;;9.60;4.33;;;26.20;65.90;;;;;;5033967;28;20438;-69
2022/08/23 09:42:37;;;;;;;5.10;4.00;;;26.20;66.20;;;;;;5031786;28;20418;-68
2022/08/23 09:45:25;;;;;;;5.50;4.13;;;26.30;65.80;;;;;;5029169;28;21076;-68
2022/08/23 09:47:51;;;;;;;5.23;4.73;;;26.40;65.20;;;;;;5036699;28;20469;-69
2022/08/23 09:50:25;;;;;;;8.83;4.13;;;26.40;65.20;;;;;;5035510;28;20527;-69
2022/08/23 09:52:59;;;;;;;5.47;3.80;;;26.50;65.20;;;;;;5032787;28;20473;-69
2022/08/23 09:55:30;;;;;;;13.23;4.20;;;26.60;65.10;;;;;;5034588;28;20461;-69
2022/08/23 09:57:58;;;;;;;4.50;4.10;;;26.60;64.50;;;;;;5030958;28;21064;-69
2022/08/23 10:00:26;;;;;;;5.60;4.43;;;26.70;64.20;;;;;;5031488;28;20481;-69
2022/08/23 10:02:56;;;;;;;4.70;4.23;;;26.80;63.60;;;;;;5033844;28;20467;-69
2022/08/23 10:05:28;;;;;;;4.63;3.73;;;26.90;62.80;;;;;;5031388;28;20486;-69
2022/08/23 10:07:59;;;;;;;4.53;4.07;;;27.00;62.70;;;;;;5031072;28;20454;-69
2022/08/23 10:10:31;;;;;;;7.77;4.60;;;27.00;62.30;;;;;;5036364;28;20445;-70
2022/08/23 10:12:57;;;;;;;4.50;4.10;;;27.20;61.90;;;;;;5033446;28;20577;-70
2022/08/23 10:15:42;;;;;;;5.70;4.67;;;27.20;61.70;;;;;;5035889;28;20437;-70
2022/08/23 10:18:38;;;;;;;6.30;4.37;;;27.30;61.50;;;;;;5034518;28;20499;-69
2022/08/23 10:21:24;;;;;;;6.27;5.67;;;27.30;61.10;;;;;;5032019;28;20461;-69
2022/08/23 10:24:13;;;;;;;8.60;5.30;;;27.30;61.40;;;;;;5033417;28;21249;-70
2022/08/23 10:29:35;;;;;;;5.33;4.27;;;27.30;61.30;;;;;;5031005;28;20442;-69
2022/08/23 10:29:57;;;;;;;5.70;4.13;;;27.40;61.30;;;;;;5033552;28;21184;-70
2022/08/23 10:32:58;;;;;;;9.07;5.00;;;27.50;61.10;;;;;;5031869;28;20489;-69
2022/08/23 10:35:41;;;;;;;6.23;5.00;;;27.50;60.70;;;;;;5035056;28;20489;-70
2022/08/23 10:38:31;;;;;;;6.20;5.20;;;27.60;60.30;;;;;;5035764;28;20425;-69
2022/08/23 10:41:04;;;;;;;5.83;4.97;;;27.70;59.80;;;;;;5030106;28;20421;-69
2022/08/23 10:43:41;;;;;;;5.17;4.27;;;27.80;59.40;;;;;;5032494;28;20415;-69
2022/08/23 10:46:07;;;;;;;5.33;4.83;;;27.90;59.00;;;;;;5034366;28;20564;-68
2022/08/23 10:49:06;;;;;;;5.53;4.47;;;27.80;58.80;;;;;;5034009;28;20816;-70
2022/08/23 10:51:38;;;;;;;7.43;5.93;;;27.90;58.80;;;;;;5039863;28;20431;-70
2022/08/23 10:54:12;;;;;;;8.03;4.77;;;28.00;58.50;;;;;;5032808;28;20434;-69
2022/08/23 10:56:38;;;;;;;5.43;4.73;;;28.00;58.00;;;;;;5030286;28;20444;-69
2022/08/23 10:59:10;;;;;;;6.03;5.33;;;28.10;58.00;;;;;;5033040;28;20414;-69
2022/08/23 11:01:50;;;;;;;10.93;6.07;;;28.20;58.00;;;;;;5032325;28;20577;-69
2022/08/23 11:04:32;;;;;;;7.30;4.53;;;28.20;57.40;;;;;;5034006;28;20426;-70
2022/08/23 11:07:00;;;;;;;6.87;5.03;;;28.30;57.60;;;;;;5034707;28;20410;-69
2022/08/23 11:09:25;;;;;;;5.23;4.67;;;28.40;57.50;;;;;;5041518;28;20896;-69
2022/08/23 11:12:15;;;;;;;7.70;4.93;;;28.40;57.30;;;;;;5031543;28;20428;-69
2022/08/23 11:14:46;;;;;;;7.00;4.67;;;28.60;57.10;;;;;;5037772;28;20255;-69
2022/08/23 11:17:33;;;;;;;8.87;5.40;;;28.70;56.60;;;;;;5033314;28;20431;-69
2022/08/23 11:20:08;;;;;;;5.00;4.60;;;28.90;55.60;;;;;;5034344;28;20851;-69
2022/08/23 11:22:56;;;;;;;5.47;4.40;;;29.00;55.40;;;;;;5029320;28;20426;-69
2022/08/23 11:25:22;;;;;;;5.17;4.17;;;29.10;55.30;;;;;;5028086;28;20457;-69
2022/08/23 11:27:48;;;;;;;6.60;5.47;;;29.20;55.10;;;;;;5032179;28;20454;-69
2022/08/23 11:30:31;;;;;;;6.43;4.30;;;29.30;54.40;;;;;;5040259;28;20176;-68
2022/08/23 11:33:14;;;;;;;5.20;4.43;;;29.50;53.30;;;;;;5037000;28;20215;-69
2022/08/23 11:35:47;;;;;;;4.73;4.30;;;29.50;52.20;;;;;;5038119;28;20413;-69
2022/08/23 11:38:14;;;;;;;5.43;4.77;;;29.60;52.00;;;;;;5037027;28;20438;-69
2022/08/23 11:40:51;;;;;;;5.10;4.60;;;29.70;50.60;;;;;;5035207;28;20434;-70
2022/08/23 11:43:24;;;;;;;5.27;4.87;;;29.90;50.70;;;;;;5041811;28;20504;-69
2022/08/23 11:45:50;;;;;;;4.73;4.23;;;30.00;50.10;;;;;;5033644;28;20446;-68
2022/08/23 11:48:23;;;;;;;6.80;5.17;;;30.20;50.10;;;;;;5036677;28;20449;-69
2022/08/23 11:51:05;;;;;;;5.23;4.73;;;30.40;49.90;;;;;;5036297;28;20972;-68
2022/08/23 11:53:53;;;;;;;8.00;5.40;;;30.70;49.20;;;;;;5037956;28;21285;-68
2022/08/23 11:56:40;;;;;;;5.50;4.70;;;31.00;49.00;;;;;;5032786;28;20451;-69
2022/08/23 11:59:38;;;;;;;4.53;4.13;;;31.20;48.50;;;;;;5039540;28;20501;-70
2022/08/23 12:02:46;;;;;;;4.03;3.73;;;31.50;47.80;;;;;;5040317;28;20418;-70
2022/08/23 12:05:19;;;;;;;6.17;5.67;;;31.90;46.90;;;;;;5038439;28;20454;-70
2022/08/23 12:07:44;;;;;;;5.53;4.13;;;32.50;46.00;;;;;;5032186;28;20454;-70
2022/08/23 12:10:13;;;;;;;5.53;4.20;;;33.60;43.50;;;;;;5034045;28;20601;-70
2022/08/23 12:12:41;;;;;;;3.70;3.40;;;34.80;42.50;;;;;;5038118;28;21006;-70
2022/08/23 12:15:11;;;;;;;4.70;3.67;;;35.60;40.20;;;;;;5034469;28;20413;-69
2022/08/23 12:17:39;;;;;;;5.87;3.30;;;36.30;39.70;;;;;;5037606;28;20390;-70
2022/08/23 12:20:08;;;;;;;3.77;3.47;;;36.80;37.80;;;;;;5034547;28;20430;-69
2022/08/23 12:22:52;;;;;;;4.67;3.87;;;37.20;37.60;;;;;;5031149;28;20537;-69
2022/08/23 12:25:20;;;;;;;3.60;3.30;;;37.70;36.80;;;;;;5036187;28;20617;-69
2022/08/23 12:27:53;;;;;;;5.73;4.00;;;38.20;36.70;;;;;;5037205;28;20523;-70
2022/08/23 12:30:39;;;;;;;4.13;3.73;;;38.50;36.10;;;;;;5042242;28;21088;-70
2022/08/23 12:33:12;;;;;;;4.07;3.73;;;38.70;34.50;;;;;;5032616;28;20798;-69
2022/08/23 12:36:03;;;;;;;4.67;3.47;;;38.80;34.40;;;;;;5034192;28;20425;-70
2022/08/23 12:38:37;;;;;;;3.53;3.23;;;39.20;34.60;;;;;;5032205;28;20440;-69
2022/08/23 12:41:18;;;;;;;3.87;3.53;;;39.50;33.60;;;;;;5028218;28;20478;-70
2022/08/23 12:44:03;;;;;;;4.13;3.73;;;39.80;32.80;;;;;;5033378;28;20447;-70
2022/08/23 12:46:41;;;;;;;3.77;3.47;;;40.10;31.90;;;;;;5034736;28;20452;-70
2022/08/23 12:49:09;;;;;;;3.40;3.10;;;40.30;30.90;;;;;;5036093;28;20433;-70
2022/08/23 12:51:40;;;;;;;4.90;3.93;;;40.60;31.10;;;;;;5035161;28;20426;-70
2022/08/23 12:54:19;;;;;;;4.00;3.70;;;40.70;30.70;;;;;;5035182;28;20458;-70
2022/08/23 12:56:51;;;;;;;4.20;3.80;;;40.90;31.30;;;;;;5037573;28;20497;-70
2022/08/23 12:59:30;;;;;;;4.03;3.70;;;41.10;31.60;;;;;;5034618;28;20434;-70
2022/08/23 13:01:57;;;;;;;3.93;3.60;;;41.10;30.50;;;;;;5033933;28;20443;-70
2022/08/23 13:04:23;;;;;;;5.83;3.73;;;41.30;30.50;;;;;;5029334;28;20431;-70
2022/08/23 13:06:55;;;;;;;6.43;3.87;;;41.60;30.00;;;;;;5033101;28;20450;-71
2022/08/23 13:09:25;;;;;;;3.87;3.57;;;41.60;29.60;;;;;;5030307;28;20188;-69
2022/08/23 13:11:51;;;;;;;3.77;3.47;;;41.50;29.40;;;;;;5029357;28;20496;-70
2022/08/23 13:14:36;;;;;;;3.70;3.40;;;41.50;29.50;;;;;;5029576;28;20434;-69